DAL515 KBHM-KBHM
Flight info
| Callsign | DAL515 |
|---|---|
| Flight time | 0h 19m |
| Altitude | 29000 |
| Route | KIOSK |
| Aircraft | CL60/M-SADE3FGHIJ3J4J7P2RWXY/HB1D1 |
Departure
| Time | 2026-04-20 23:45 |
|---|---|
| Airport | Birmingham-Shuttlesworth International Airport (KBHM) |
Arrival
| Time | 2026-04-21 00:04 |
|---|---|
| Airport | Birmingham-Shuttlesworth International Airport (KBHM) |
| Time | Latitude | Longitude | Altitude | Speed | Heading |
|---|---|---|---|---|---|
| 2026-04-20 23:37 | 33.52353 | -85.77291 | 17395 ft | 391 kts | 284° |
| 2026-04-20 23:37 | 33.52852 | -85.80501 | 16796 ft | 387 kts | 284° |
| 2026-04-20 23:37 | 33.53342 | -85.83657 | 16227 ft | 385 kts | 284° |
| 2026-04-20 23:37 | 33.53826 | -85.86777 | 15650 ft | 382 kts | 284° |
| 2026-04-20 23:38 | 33.54313 | -85.89898 | 15112 ft | 386 kts | 284° |
| 2026-04-20 23:38 | 33.54804 | -85.93050 | 14590 ft | 389 kts | 284° |
| 2026-04-20 23:38 | 33.55300 | -85.96251 | 14064 ft | 387 kts | 284° |
| 2026-04-20 23:38 | 33.55789 | -85.99412 | 13546 ft | 385 kts | 284° |
| 2026-04-20 23:39 | 33.56264 | -86.02480 | 13048 ft | 369 kts | 284° |
| 2026-04-20 23:39 | 33.56720 | -86.05449 | 12565 ft | 353 kts | 284° |
| 2026-04-20 23:39 | 33.57166 | -86.08270 | 11996 ft | 343 kts | 285° |
| 2026-04-20 23:39 | 33.57820 | -86.10986 | 11119 ft | 338 kts | 298° |
| 2026-04-20 23:40 | 33.59273 | -86.13004 | 10989 ft | 308 kts | 328° |
| 2026-04-20 23:40 | 33.61182 | -86.14037 | 10624 ft | 298 kts | 340° |
| 2026-04-20 23:40 | 33.63113 | -86.14871 | 9887 ft | 301 kts | 340° |
| 2026-04-20 23:40 | 33.65130 | -86.15567 | 9163 ft | 301 kts | 353° |
| 2026-04-20 23:41 | 33.67161 | -86.15271 | 8462 ft | 296 kts | 19° |
| 2026-04-20 23:41 | 33.68975 | -86.14221 | 8123 ft | 278 kts | 22° |
| 2026-04-20 23:41 | 33.70768 | -86.13753 | 7873 ft | 258 kts | 354° |
| 2026-04-20 23:41 | 33.72439 | -86.14420 | 7506 ft | 256 kts | 329° |
| 2026-04-20 23:42 | 33.73900 | -86.15614 | 7176 ft | 253 kts | 326° |
| 2026-04-20 23:42 | 33.75323 | -86.16840 | 6711 ft | 254 kts | 326° |
| 2026-04-20 23:42 | 33.76783 | -86.18098 | 6240 ft | 255 kts | 326° |
| 2026-04-20 23:42 | 33.78205 | -86.19328 | 5820 ft | 254 kts | 324° |
| 2026-04-20 23:43 | 33.79354 | -86.20908 | 5388 ft | 256 kts | 297° |
| 2026-04-20 23:43 | 33.79664 | -86.23016 | 4895 ft | 262 kts | 270° |
| 2026-04-20 23:43 | 33.79474 | -86.25192 | 4452 ft | 262 kts | 266° |
| 2026-04-20 23:43 | 33.79249 | -86.27342 | 4078 ft | 259 kts | 266° |
| 2026-04-20 23:44 | 33.79021 | -86.29495 | 3964 ft | 263 kts | 265° |
| 2026-04-20 23:44 | 33.78796 | -86.31708 | 3952 ft | 266 kts | 266° |
| 2026-04-20 23:44 | 33.78573 | -86.33881 | 3960 ft | 262 kts | 266° |
| 2026-04-20 23:44 | 33.78353 | -86.36066 | 3958 ft | 261 kts | 266° |
| 2026-04-20 23:45 | 33.77879 | -86.38165 | 3959 ft | 265 kts | 244° |
| 2026-04-20 23:45 | 33.76859 | -86.40010 | 3954 ft | 266 kts | 238° |
| 2026-04-20 23:45 | 33.75803 | -86.41843 | 3957 ft | 266 kts | 238° |
| 2026-04-20 23:45 | 33.74764 | -86.43655 | 3963 ft | 266 kts | 238° |
| 2026-04-20 23:46 | 33.73703 | -86.45505 | 3964 ft | 266 kts | 238° |
| 2026-04-20 23:46 | 33.72660 | -86.47322 | 3971 ft | 257 kts | 238° |
| 2026-04-20 23:46 | 33.71688 | -86.49011 | 3986 ft | 238 kts | 238° |
| 2026-04-20 23:46 | 33.70787 | -86.50575 | 3990 ft | 221 kts | 238° |
| 2026-04-20 23:47 | 33.69925 | -86.52062 | 3982 ft | 215 kts | 238° |
| 2026-04-20 23:47 | 33.69051 | -86.53532 | 3970 ft | 215 kts | 238° |
| 2026-04-20 23:47 | 33.68200 | -86.55003 | 3975 ft | 215 kts | 238° |
| 2026-04-20 23:47 | 33.67337 | -86.56501 | 3970 ft | 215 kts | 238° |
| 2026-04-20 23:48 | 33.66482 | -86.57993 | 3724 ft | 222 kts | 239° |
| 2026-04-20 23:48 | 33.65608 | -86.59517 | 3475 ft | 218 kts | 239° |
| 2026-04-20 23:48 | 33.64773 | -86.60973 | 3205 ft | 209 kts | 238° |
| 2026-04-20 23:48 | 33.63961 | -86.62388 | 2944 ft | 199 kts | 238° |
| 2026-04-20 23:49 | 33.63201 | -86.63714 | 2696 ft | 189 kts | 238° |
| 2026-04-20 23:49 | 33.62491 | -86.64948 | 2451 ft | 167 kts | 239° |
| 2026-04-20 23:49 | 33.61879 | -86.66012 | 2268 ft | 146 kts | 239° |
| 2026-04-20 23:49 | 33.61311 | -86.67006 | 2062 ft | 143 kts | 238° |
| 2026-04-20 23:50 | 33.60754 | -86.67977 | 1880 ft | 141 kts | 239° |
| 2026-04-20 23:50 | 33.60194 | -86.68955 | 1695 ft | 141 kts | 238° |
| 2026-04-20 23:50 | 33.59668 | -86.69873 | 1511 ft | 140 kts | 238° |
| 2026-04-20 23:50 | 33.59116 | -86.70831 | 1344 ft | 139 kts | 238° |
| 2026-04-20 23:51 | 33.58578 | -86.71770 | 1170 ft | 137 kts | 238° |
| 2026-04-20 23:51 | 33.58051 | -86.72691 | 925 ft | 132 kts | 237° |
| 2026-04-20 23:51 | 33.57534 | -86.73589 | 799 ft | 135 kts | 237° |
| 2026-04-20 23:51 | 33.56914 | -86.74674 | 1116 ft | 179 kts | 238° |
| 2026-04-20 23:52 | 33.56171 | -86.75948 | 1559 ft | 188 kts | 237° |
| 2026-04-20 23:52 | 33.55400 | -86.77237 | 2016 ft | 191 kts | 237° |
| 2026-04-20 23:52 | 33.54565 | -86.78490 | 2488 ft | 197 kts | 221° |
| 2026-04-20 23:52 | 33.53279 | -86.79059 | 2964 ft | 209 kts | 178° |
| 2026-04-20 23:53 | 33.51881 | -86.78538 | 3482 ft | 214 kts | 149° |
| 2026-04-20 23:53 | 33.50596 | -86.77599 | 3895 ft | 214 kts | 146° |
| 2026-04-20 23:53 | 33.49329 | -86.76630 | 3982 ft | 220 kts | 146° |
| 2026-04-20 23:53 | 33.48002 | -86.75612 | 3974 ft | 230 kts | 146° |
| 2026-04-20 23:54 | 33.46650 | -86.74577 | 3973 ft | 231 kts | 146° |
| 2026-04-20 23:54 | 33.45306 | -86.73527 | 3974 ft | 232 kts | 141° |
| 2026-04-20 23:54 | 33.44333 | -86.72047 | 3975 ft | 227 kts | 106° |
| 2026-04-20 23:54 | 33.44283 | -86.70225 | 3983 ft | 220 kts | 69° |
| 2026-04-20 23:55 | 33.44960 | -86.68600 | 3983 ft | 218 kts | 57° |
| 2026-04-20 23:55 | 33.45753 | -86.67042 | 3974 ft | 219 kts | 56° |
| 2026-04-20 23:55 | 33.46555 | -86.65483 | 3966 ft | 218 kts | 56° |
| 2026-04-20 23:55 | 33.47357 | -86.63939 | 3973 ft | 218 kts | 56° |
| 2026-04-20 23:56 | 33.48166 | -86.62379 | 3983 ft | 219 kts | 56° |
| 2026-04-20 23:56 | 33.48972 | -86.60829 | 3966 ft | 218 kts | 56° |
| 2026-04-20 23:56 | 33.49779 | -86.59290 | 3970 ft | 218 kts | 56° |
| 2026-04-20 23:56 | 33.50589 | -86.57748 | 3966 ft | 219 kts | 56° |
| 2026-04-20 23:57 | 33.51394 | -86.56205 | 3965 ft | 217 kts | 56° |
| 2026-04-20 23:57 | 33.52198 | -86.54672 | 3964 ft | 218 kts | 56° |
| 2026-04-20 23:57 | 33.52997 | -86.53130 | 3959 ft | 217 kts | 55° |
| 2026-04-20 23:57 | 33.53788 | -86.51595 | 3962 ft | 217 kts | 56° |
| 2026-04-20 23:58 | 33.54587 | -86.50046 | 3978 ft | 219 kts | 56° |
| 2026-04-20 23:58 | 33.55418 | -86.48508 | 3972 ft | 218 kts | 47° |
| 2026-04-20 23:58 | 33.56633 | -86.47541 | 3979 ft | 213 kts | 12° |
| 2026-04-20 23:58 | 33.58102 | -86.47671 | 3843 ft | 214 kts | 336° |
| 2026-04-20 23:59 | 33.59370 | -86.48580 | 3659 ft | 212 kts | 326° |
| 2026-04-20 23:59 | 33.60576 | -86.49595 | 3458 ft | 211 kts | 326° |
| 2026-04-20 23:59 | 33.61781 | -86.50624 | 3259 ft | 211 kts | 326° |
| 2026-04-20 23:59 | 33.62980 | -86.51649 | 3059 ft | 212 kts | 326° |
| 2026-04-21 00:00 | 33.64165 | -86.52661 | 2957 ft | 210 kts | 326° |
| 2026-04-21 00:00 | 33.65344 | -86.53716 | 2954 ft | 212 kts | 318° |
| 2026-04-21 00:00 | 33.66285 | -86.55085 | 2958 ft | 214 kts | 300° |
| 2026-04-21 00:00 | 33.66650 | -86.56803 | 2966 ft | 218 kts | 270° |
| 2026-04-21 00:01 | 33.66207 | -86.58559 | 2968 ft | 223 kts | 241° |
| 2026-04-21 00:01 | 33.65329 | -86.60095 | 2973 ft | 224 kts | 237° |
| 2026-04-21 00:01 | 33.64418 | -86.61633 | 2970 ft | 224 kts | 237° |
| 2026-04-21 00:01 | 33.63537 | -86.63152 | 2763 ft | 225 kts | 238° |
| 2026-04-21 00:02 | 33.62667 | -86.64658 | 2518 ft | 212 kts | 238° |
| 2026-04-21 00:02 | 33.61851 | -86.66077 | 2248 ft | 202 kts | 238° |
| 2026-04-21 00:02 | 33.61064 | -86.67446 | 1988 ft | 194 kts | 238° |
| 2026-04-21 00:02 | 33.60319 | -86.68743 | 1711 ft | 186 kts | 238° |
| 2026-04-21 00:03 | 33.59596 | -86.70003 | 1489 ft | 177 kts | 238° |
| 2026-04-21 00:03 | 33.58924 | -86.71172 | 1285 ft | 166 kts | 237° |
| 2026-04-21 00:03 | 33.58307 | -86.72243 | 1108 ft | 143 kts | 238° |
| 2026-04-21 00:03 | 33.57764 | -86.73186 | 916 ft | 136 kts | 238° |
| 2026-04-21 00:04 | 33.57227 | -86.74124 | 721 ft | 135 kts | 237° |
| 2026-04-21 00:04 | 33.56726 | -86.74991 | 633 ft | 115 kts | 235° |
| 2026-04-21 00:04 | 33.56348 | -86.75647 | 621 ft | 72 kts | 237° |
| 2026-04-21 00:04 | 33.56121 | -86.75883 | 618 ft | 13 kts | 202° |
| 2026-04-21 00:05 | 33.56099 | -86.75894 | 617 ft | 0 kts | 203° |
| 2026-04-21 00:05 | 33.56055 | -86.75892 | 617 ft | 9 kts | 149° |
| 2026-04-21 00:05 | 33.55761 | -86.75677 | 613 ft | 59 kts | 152° |
| 2026-04-21 00:05 | 33.55402 | -86.75520 | 621 ft | 40 kts | 167° |
| 2026-04-21 00:06 | 33.55275 | -86.75483 | 626 ft | 9 kts | 165° |
| 2026-04-21 00:06 | 33.55263 | -86.75479 | 626 ft | 0 kts | 165° |